createdAt,value
2022-09-27T00:01:08.127Z,3.40
2022-09-27T00:03:34.872Z,3.38
2022-09-27T00:06:12.195Z,3.72
2022-09-27T00:08:39.235Z,3.53
2022-09-27T00:11:09.634Z,4.28
2022-09-27T00:13:36.402Z,3.33
2022-09-27T00:16:07.506Z,3.70
2022-09-27T00:18:34.412Z,3.33
2022-09-27T00:21:12.463Z,3.60
2022-09-27T00:23:40.148Z,3.17
2022-09-27T00:26:08.893Z,3.20
2022-09-27T00:28:35.840Z,3.45
2022-09-27T00:31:03.081Z,3.88
2022-09-27T00:33:29.790Z,3.88
2022-09-27T00:36:04.805Z,3.42
2022-09-27T00:38:31.498Z,3.15
2022-09-27T00:40:58.237Z,3.40
2022-09-27T00:43:25.054Z,3.88
2022-09-27T00:46:03.157Z,3.63
2022-09-27T00:48:33.389Z,3.83
2022-09-27T00:51:05.615Z,4.05
2022-09-27T00:53:39.326Z,3.72
2022-09-27T00:56:12.865Z,3.65
2022-09-27T00:58:45.905Z,4.13
2022-09-27T01:01:14.274Z,4.03
2022-09-27T01:03:49.470Z,3.33
2022-09-27T01:06:18.831Z,4.03
2022-09-27T01:08:46.165Z,3.90
2022-09-27T01:11:34.330Z,3.85
2022-09-27T01:14:39.011Z,3.95
2022-09-27T01:17:24.683Z,3.20
2022-09-27T01:20:09.516Z,3.25
2022-09-27T01:22:51.913Z,3.45
2022-09-27T01:25:56.973Z,3.17
2022-09-27T01:28:46.450Z,3.20
2022-09-27T01:31:31.244Z,2.90
2022-09-27T01:33:57.912Z,3.10
2022-09-27T01:36:54.671Z,3.20
2022-09-27T01:39:39.551Z,2.92
2022-09-27T01:42:22.502Z,2.55
2022-09-27T01:44:58.488Z,2.72
2022-09-27T01:47:32.891Z,3.03
2022-09-27T01:50:04.757Z,2.90
2022-09-27T01:53:07.380Z,2.63
2022-09-27T01:55:37.529Z,2.75
2022-09-27T01:58:31.148Z,2.65
2022-09-27T02:00:59.599Z,2.70
2022-09-27T02:03:35.997Z,3.05
2022-09-27T02:06:21.282Z,3.00
2022-09-27T02:08:56.655Z,2.83
2022-09-27T02:11:23.354Z,2.50
2022-09-27T02:13:56.483Z,2.60
2022-09-27T02:16:23.213Z,2.70
2022-09-27T02:19:20.535Z,2.70
2022-09-27T02:22:09.596Z,2.67
2022-09-27T02:24:59.076Z,2.90
2022-09-27T02:27:33.713Z,2.80
2022-09-27T02:30:11.918Z,3.53
2022-09-27T02:32:39.438Z,2.90
2022-09-27T02:35:17.376Z,2.90
2022-09-27T02:37:44.551Z,2.70
2022-09-27T02:40:11.698Z,3.25
2022-09-27T02:42:38.868Z,2.90
2022-09-27T02:45:06.838Z,3.15
2022-09-27T02:47:57.731Z,2.88
2022-09-27T02:50:54.613Z,3.30
2022-09-27T02:54:02.784Z,3.10
2022-09-27T02:56:39.928Z,3.05
2022-09-27T02:59:14.831Z,3.28
2022-09-27T03:01:52.544Z,3.65
2022-09-27T03:04:40.670Z,2.60
2022-09-27T03:07:07.981Z,3.17
2022-09-27T03:09:48.031Z,3.13
2022-09-27T03:12:20.836Z,2.80
2022-09-27T03:14:47.526Z,2.53
2022-09-27T03:17:14.194Z,2.60
2022-09-27T03:19:41.036Z,2.50
2022-09-27T03:22:08.873Z,2.70
2022-09-27T03:24:35.581Z,3.25
2022-09-27T03:27:03.433Z,2.88
2022-09-27T03:29:30.156Z,2.50
2022-09-27T03:31:56.822Z,3.10
2022-09-27T03:34:23.574Z,2.50
2022-09-27T03:36:50.568Z,2.78
2022-09-27T03:39:17.347Z,2.72
2022-09-27T03:41:44.525Z,2.70
2022-09-27T03:44:11.221Z,3.08
2022-09-27T03:46:38.087Z,2.90
2022-09-27T03:49:05.012Z,3.53
2022-09-27T03:51:31.800Z,2.80
2022-09-27T03:53:58.629Z,3.00
2022-09-27T03:56:25.403Z,2.88
2022-09-27T03:58:52.119Z,2.90
2022-09-27T04:01:18.978Z,3.30
2022-09-27T04:03:46.222Z,2.90
2022-09-27T04:06:13.239Z,3.00
2022-09-27T04:08:40.041Z,2.90
2022-09-27T04:11:07.662Z,3.30
2022-09-27T04:13:34.433Z,3.50
2022-09-27T04:16:03.035Z,3.03
2022-09-27T04:18:29.877Z,3.45
2022-09-27T04:20:56.624Z,2.70
2022-09-27T04:23:29.038Z,3.13
2022-09-27T04:25:56.645Z,3.05
2022-09-27T04:28:23.697Z,3.45
2022-09-27T04:30:50.838Z,3.08
2022-09-27T04:33:17.636Z,3.13
2022-09-27T04:36:02.940Z,3.22
2022-09-27T04:38:29.715Z,3.53
2022-09-27T04:40:56.579Z,3.40
2022-09-27T04:43:23.741Z,3.30
2022-09-27T04:45:50.458Z,3.40
2022-09-27T04:48:17.165Z,3.70
2022-09-27T04:50:43.833Z,3.83
2022-09-27T04:53:15.254Z,4.30
2022-09-27T04:55:47.138Z,3.70
2022-09-27T04:58:13.792Z,4.10
2022-09-27T05:00:42.934Z,4.00
2022-09-27T05:03:09.644Z,3.75
2022-09-27T05:05:36.336Z,4.32
2022-09-27T05:08:03.052Z,4.18
2022-09-27T05:10:29.718Z,4.10
2022-09-27T05:12:56.501Z,3.72
2022-09-27T05:15:23.243Z,4.57
2022-09-27T05:17:53.851Z,3.95
2022-09-27T05:20:20.823Z,3.90
2022-09-27T05:22:47.523Z,4.00
2022-09-27T05:25:14.325Z,4.22
2022-09-27T05:27:41.290Z,3.72
2022-09-27T05:30:08.506Z,3.78
2022-09-27T05:32:36.157Z,4.10
2022-09-27T05:35:02.918Z,4.13
2022-09-27T05:37:33.046Z,3.85
2022-09-27T05:40:01.227Z,3.53
2022-09-27T05:42:39.091Z,3.47
2022-09-27T05:45:07.209Z,3.80
2022-09-27T05:47:33.932Z,3.83
2022-09-27T05:50:00.649Z,3.40
2022-09-27T05:52:27.390Z,3.85
2022-09-27T05:54:54.078Z,4.10
2022-09-27T05:57:20.844Z,4.00
2022-09-27T05:59:47.891Z,4.43
2022-09-27T06:02:14.590Z,4.15
2022-09-27T06:04:41.321Z,3.90
2022-09-27T06:07:07.972Z,4.07
2022-09-27T06:09:34.642Z,3.97
2022-09-27T06:12:01.458Z,4.30
2022-09-27T06:14:28.231Z,4.47
2022-09-27T06:16:55.184Z,4.32
2022-09-27T06:19:22.017Z,4.50
2022-09-27T06:21:51.510Z,4.05
2022-09-27T06:24:18.168Z,3.78
2022-09-27T06:26:45.109Z,4.07
2022-09-27T06:29:11.972Z,4.75
2022-09-27T06:31:38.662Z,5.22
2022-09-27T06:34:05.440Z,5.60
2022-09-27T06:36:33.431Z,5.50
2022-09-27T06:39:01.740Z,6.00
2022-09-27T06:41:28.432Z,5.03
2022-09-27T06:43:55.657Z,5.00
2022-09-27T06:46:22.409Z,6.18
2022-09-27T06:48:49.113Z,5.50
2022-09-27T06:51:15.956Z,5.43
2022-09-27T06:53:42.698Z,5.68
2022-09-27T06:56:09.322Z,5.22
2022-09-27T06:58:54.821Z,5.22
2022-09-27T07:01:21.640Z,5.15
2022-09-27T07:03:51.543Z,4.90
2022-09-27T07:06:22.980Z,5.05
2022-09-27T07:08:53.908Z,5.72
2022-09-27T07:11:23.599Z,4.97
2022-09-27T07:13:50.942Z,5.55
2022-09-27T07:16:18.126Z,5.20
2022-09-27T07:18:44.862Z,4.75
2022-09-27T07:21:13.030Z,4.55
2022-09-27T07:23:39.817Z,4.70
2022-09-27T07:26:07.294Z,5.03
2022-09-27T07:28:35.169Z,4.60
2022-09-27T07:31:02.862Z,4.80
2022-09-27T07:33:30.493Z,4.88
2022-09-27T07:35:57.486Z,4.72
2022-09-27T07:38:24.187Z,5.00
2022-09-27T07:40:51.161Z,4.97
2022-09-27T07:43:18.782Z,5.10
2022-09-27T07:45:45.883Z,4.88
2022-09-27T07:48:16.829Z,4.70
2022-09-27T07:50:43.998Z,5.57
2022-09-27T07:53:13.416Z,6.30
2022-09-27T07:55:41.188Z,5.43
2022-09-27T07:58:10.674Z,5.00
2022-09-27T08:00:39.726Z,5.55
2022-09-27T08:03:16.105Z,5.25
2022-09-27T08:05:45.406Z,5.07
2022-09-27T08:08:12.058Z,5.78
2022-09-27T08:10:42.298Z,5.68
2022-09-27T08:13:09.708Z,5.85
2022-09-27T08:15:38.530Z,5.20
2022-09-27T08:18:06.750Z,5.72
2022-09-27T08:20:33.432Z,5.85
2022-09-27T08:23:00.136Z,5.40
2022-09-27T08:25:28.480Z,5.43
2022-09-27T08:27:57.706Z,5.28
2022-09-27T08:30:25.124Z,5.70
2022-09-27T08:32:59.335Z,5.00
2022-09-27T08:35:29.029Z,5.03
2022-09-27T08:38:00.011Z,4.70
2022-09-27T08:40:42.418Z,5.10
2022-09-27T08:43:11.956Z,5.05
2022-09-27T08:45:54.544Z,4.22
2022-09-27T08:48:23.012Z,4.63
2022-09-27T08:50:49.864Z,4.28
2022-09-27T08:53:30.911Z,4.57
2022-09-27T08:56:00.019Z,4.60
2022-09-27T08:58:40.638Z,3.95
2022-09-27T09:01:14.198Z,3.42
2022-09-27T09:03:50.136Z,3.60
2022-09-27T09:06:27.536Z,3.10
2022-09-27T09:09:02.107Z,3.15
2022-09-27T09:11:55.233Z,3.72
2022-09-27T09:14:44.794Z,3.70
2022-09-27T09:17:47.039Z,3.20
2022-09-27T09:20:28.697Z,4.40
2022-09-27T09:23:13.379Z,4.47
2022-09-27T09:26:04.753Z,3.60
2022-09-27T09:28:34.470Z,3.90
2022-09-27T09:31:07.028Z,3.40
2022-09-27T09:33:59.911Z,1.58
2022-09-27T09:36:35.497Z,1.30
2022-09-27T09:39:12.161Z,1.27
2022-09-27T09:41:44.848Z,1.00
2022-09-27T09:44:34.527Z,0.85
2022-09-27T09:47:03.136Z,1.00
2022-09-27T09:49:40.557Z,0.80
2022-09-27T09:52:12.795Z,1.00
2022-09-27T09:55:04.099Z,0.63
2022-09-27T09:57:41.104Z,0.70
2022-09-27T10:00:19.129Z,0.70
2022-09-27T10:02:48.002Z,0.40
2022-09-27T10:05:18.669Z,0.60
2022-09-27T10:07:47.221Z,0.50
2022-09-27T10:10:16.540Z,0.50
2022-09-27T10:12:44.272Z,0.45
2022-09-27T10:15:19.302Z,0.40
2022-09-27T10:17:53.859Z,0.40
2022-09-27T10:20:42.481Z,0.40
2022-09-27T10:23:19.604Z,0.20
2022-09-27T10:25:52.855Z,0.40
2022-09-27T10:28:55.178Z,0.57
2022-09-27T10:31:23.053Z,0.40
2022-09-27T10:34:01.697Z,0.30
2022-09-27T10:36:31.479Z,0.50
2022-09-27T10:39:00.901Z,0.38
2022-09-27T10:41:39.579Z,0.50
2022-09-27T10:44:27.560Z,0.30
2022-09-27T10:47:01.941Z,0.30
2022-09-27T10:49:34.880Z,0.60
2022-09-27T10:52:08.287Z,0.40
2022-09-27T10:54:39.101Z,0.45
2022-09-27T10:57:17.789Z,0.40
2022-09-27T10:59:49.852Z,0.40
2022-09-27T11:02:22.942Z,0.30
2022-09-27T11:05:06.755Z,0.40
2022-09-27T11:07:37.211Z,0.30
2022-09-27T11:10:40.478Z,0.43
2022-09-27T11:13:18.870Z,0.40
2022-09-27T11:16:16.589Z,0.45
2022-09-27T11:19:09.926Z,0.30
2022-09-27T11:22:16.802Z,0.50
2022-09-27T11:25:01.394Z,0.43
2022-09-27T11:27:40.556Z,0.50
2022-09-27T11:30:15.059Z,0.40
2022-09-27T11:32:50.773Z,0.40
2022-09-27T11:35:44.866Z,0.30
2022-09-27T11:38:54.095Z,0.40
2022-09-27T11:41:38.378Z,0.50
2022-09-27T11:44:29.537Z,0.40
2022-09-27T11:47:21.832Z,0.50
2022-09-27T11:50:10.066Z,0.50
2022-09-27T11:53:00.565Z,0.40
2022-09-27T11:55:56.253Z,0.50
2022-09-27T11:58:37.802Z,0.40
2022-09-27T12:01:39.220Z,0.40
2022-09-27T12:04:17.572Z,0.50
2022-09-27T12:07:02.542Z,0.40
2022-09-27T12:09:35.560Z,0.52
2022-09-27T12:12:14.157Z,0.40
2022-09-27T12:14:48.049Z,0.57
2022-09-27T12:17:24.441Z,0.70
2022-09-27T12:19:55.248Z,0.50
2022-09-27T12:22:58.164Z,0.60
2022-09-27T12:25:31.213Z,0.60
2022-09-27T12:28:37.163Z,0.65
2022-09-27T12:34:00.318Z,0.50
2022-09-27T12:36:38.384Z,0.45
2022-09-27T12:39:14.333Z,0.60
2022-09-27T12:41:48.012Z,0.50
2022-09-27T12:44:14.916Z,0.50
2022-09-27T12:47:26.174Z,0.57
2022-09-27T12:49:54.004Z,0.60
2022-09-27T12:52:28.582Z,0.50
2022-09-27T12:55:13.000Z,0.57
2022-09-27T12:58:01.591Z,0.60
2022-09-27T13:00:41.799Z,0.70
2022-09-27T13:03:20.291Z,0.70
2022-09-27T13:06:04.025Z,0.80
2022-09-27T13:08:56.486Z,0.57
2022-09-27T13:11:43.295Z,0.80
2022-09-27T13:14:19.191Z,0.90
2022-09-27T13:16:47.744Z,1.00
2022-09-27T13:19:44.240Z,0.63
2022-09-27T13:22:37.138Z,0.80
2022-09-27T13:25:24.090Z,0.95
2022-09-27T13:27:50.715Z,0.70
2022-09-27T13:30:37.282Z,0.90
2022-09-27T13:33:10.054Z,0.70
2022-09-27T13:35:36.828Z,0.70
2022-09-27T13:38:07.077Z,0.90
2022-09-27T13:40:36.552Z,0.65
2022-09-27T13:43:17.789Z,0.90
2022-09-27T13:45:57.411Z,0.80
2022-09-27T13:48:32.632Z,0.88
2022-09-27T13:51:12.026Z,0.80
2022-09-27T13:53:40.782Z,0.80
2022-09-27T13:56:48.387Z,0.95
2022-09-27T13:59:20.158Z,0.80
2022-09-27T14:01:52.644Z,0.93
2022-09-27T14:04:35.434Z,0.90
2022-09-27T14:07:04.138Z,1.02
2022-09-27T14:09:34.785Z,0.77
2022-09-27T14:12:07.018Z,0.80
2022-09-27T14:14:35.770Z,0.82
2022-09-27T14:17:10.009Z,1.00
2022-09-27T14:19:41.523Z,0.90
2022-09-27T14:22:16.646Z,0.70
2022-09-27T14:24:43.203Z,0.80
2022-09-27T14:27:22.635Z,0.88
2022-09-27T14:29:53.578Z,0.93
2022-09-27T14:32:21.986Z,0.65
2022-09-27T14:35:32.388Z,0.70
2022-09-27T14:38:15.751Z,1.02
2022-09-27T14:41:03.048Z,0.88
2022-09-27T14:43:32.119Z,0.88
2022-09-27T14:46:01.346Z,0.70
2022-09-27T14:48:32.465Z,0.70
2022-09-27T14:51:05.734Z,0.75
2022-09-27T14:53:48.817Z,0.85
2022-09-27T14:56:22.793Z,0.90
2022-09-27T14:58:56.643Z,1.07
2022-09-27T15:01:24.287Z,1.00
2022-09-27T15:03:51.115Z,1.00
2022-09-27T15:06:18.762Z,0.88
2022-09-27T15:08:49.399Z,0.90
2022-09-27T15:11:19.443Z,0.90
2022-09-27T15:13:51.303Z,0.95
2022-09-27T15:16:22.264Z,0.80
2022-09-27T15:19:03.177Z,0.90
2022-09-27T15:21:33.777Z,0.90
2022-09-27T15:24:01.957Z,0.80
2022-09-27T15:26:39.020Z,0.90
2022-09-27T15:29:06.267Z,0.73
2022-09-27T15:31:35.324Z,0.95
2022-09-27T15:34:03.160Z,0.68
2022-09-27T15:37:06.466Z,0.80
2022-09-27T15:39:35.996Z,0.60
2022-09-27T15:42:10.310Z,0.30
2022-09-27T15:44:43.015Z,0.40
2022-09-27T15:47:34.704Z,0.30
2022-09-27T15:50:16.663Z,0.38
2022-09-27T15:52:50.180Z,0.55
2022-09-27T15:55:22.805Z,0.60
2022-09-27T15:57:55.268Z,0.75
2022-09-27T16:00:21.979Z,0.60
2022-09-27T16:02:48.608Z,0.63
2022-09-27T16:05:15.387Z,0.73
2022-09-27T16:07:42.147Z,1.05
2022-09-27T16:10:18.331Z,0.70
2022-09-27T16:12:45.316Z,1.05
2022-09-27T16:15:13.320Z,0.98
2022-09-27T16:17:42.623Z,1.15
2022-09-27T16:20:29.743Z,0.80
2022-09-27T16:22:56.873Z,1.10
2022-09-27T16:25:24.063Z,0.85
2022-09-27T16:27:52.570Z,0.60
2022-09-27T16:30:20.727Z,0.80
2022-09-27T16:32:48.802Z,0.90
2022-09-27T16:35:17.411Z,0.95
2022-09-27T16:37:44.398Z,1.25
2022-09-27T16:40:13.318Z,1.25
2022-09-27T16:42:41.254Z,0.90
2022-09-27T16:45:12.664Z,0.90
2022-09-27T16:47:41.249Z,0.75
2022-09-27T16:50:28.529Z,0.70
2022-09-27T16:52:55.425Z,0.40
2022-09-27T16:55:22.889Z,0.50
2022-09-27T16:57:50.634Z,0.30
2022-09-27T17:00:18.611Z,0.40
2022-09-27T17:02:48.566Z,0.40
2022-09-27T17:05:15.985Z,0.40
2022-09-27T17:07:42.878Z,0.30
2022-09-27T17:10:09.885Z,0.30
2022-09-27T17:12:36.717Z,0.50
2022-09-27T17:15:03.818Z,0.35
2022-09-27T17:17:30.459Z,0.20
2022-09-27T17:19:57.106Z,0.30
2022-09-27T17:22:23.716Z,0.20
2022-09-27T17:24:51.318Z,0.22
2022-09-27T17:27:18.160Z,0.68
2022-09-27T17:29:44.794Z,0.40
2022-09-27T17:32:13.679Z,0.10
2022-09-27T17:34:43.669Z,0.47
2022-09-27T17:37:13.394Z,0.45
2022-09-27T17:39:40.046Z,0.20
2022-09-27T17:42:06.869Z,0.40
2022-09-27T17:44:33.581Z,0.15
2022-09-27T17:47:18.727Z,0.30
2022-09-27T17:50:04.395Z,0.17
2022-09-27T17:52:31.166Z,0.30
2022-09-27T17:54:58.691Z,0.20
2022-09-27T17:57:25.872Z,0.60
2022-09-27T17:59:53.683Z,0.30
2022-09-27T18:02:20.947Z,0.43
2022-09-27T18:04:47.734Z,0.38
2022-09-27T18:07:14.527Z,0.35
2022-09-27T18:09:41.190Z,0.28
2022-09-27T18:12:07.897Z,0.40
2022-09-27T18:14:35.377Z,0.30
2022-09-27T18:17:02.070Z,0.10
2022-09-27T18:19:28.682Z,0.30
2022-09-27T18:21:55.603Z,0.13
2022-09-27T18:24:22.437Z,0.20
2022-09-27T18:26:49.138Z,0.20
2022-09-27T18:29:18.741Z,0.30
2022-09-27T18:31:48.711Z,0.50
2022-09-27T18:34:17.683Z,0.50
2022-09-27T18:36:44.713Z,0.43
2022-09-27T18:39:15.802Z,0.40
2022-09-27T18:41:42.638Z,0.40
2022-09-27T18:44:11.844Z,1.05
2022-09-27T18:46:38.630Z,0.22
2022-09-27T18:49:07.859Z,0.20
2022-09-27T18:51:37.636Z,0.40
2022-09-27T18:54:12.678Z,0.47
2022-09-27T18:59:10.819Z,0.50
2022-09-27T19:01:39.974Z,0.50
2022-09-27T19:04:07.764Z,0.60
2022-09-27T19:06:35.649Z,0.88
2022-09-27T19:09:03.813Z,0.60
2022-09-27T19:11:30.710Z,0.70
2022-09-27T19:13:58.610Z,0.60
2022-09-27T19:16:26.940Z,0.90
2022-09-27T19:18:54.384Z,0.50
2022-09-27T19:21:23.478Z,0.90
2022-09-27T19:23:51.470Z,0.70
2022-09-27T19:26:21.094Z,0.90
2022-09-27T19:28:47.925Z,0.80
2022-09-27T19:31:25.708Z,0.40
2022-09-27T19:33:58.933Z,0.70
2022-09-27T19:36:26.915Z,0.68
2022-09-27T19:38:53.671Z,1.00
2022-09-27T19:41:20.344Z,0.80
2022-09-27T19:43:54.317Z,0.90
2022-09-27T19:50:01.614Z,1.23
2022-09-27T19:52:28.491Z,0.40
2022-09-27T19:54:55.167Z,0.50
2022-09-27T19:57:21.759Z,0.25
2022-09-27T19:59:48.456Z,0.43
2022-09-27T20:02:15.294Z,0.70
2022-09-27T20:04:42.108Z,0.40
2022-09-27T20:07:08.773Z,0.40
2022-09-27T20:09:37.075Z,0.60
2022-09-27T20:12:04.723Z,0.60
2022-09-27T20:14:31.350Z,0.82
2022-09-27T20:16:58.437Z,0.50
2022-09-27T20:19:25.058Z,0.75
2022-09-27T20:21:51.912Z,0.50
2022-09-27T20:24:18.520Z,0.70
2022-09-27T20:26:45.753Z,0.60
2022-09-27T20:29:12.510Z,0.50
2022-09-27T20:32:02.945Z,0.43
2022-09-27T20:34:29.797Z,0.40
2022-09-27T20:36:56.400Z,0.38
2022-09-27T20:39:24.294Z,0.50
2022-09-27T20:41:51.025Z,1.08
2022-09-27T20:44:20.008Z,0.80
2022-09-27T20:46:47.766Z,0.50
2022-09-27T20:49:17.092Z,0.50
2022-09-27T20:51:45.597Z,0.50
2022-09-27T20:54:13.255Z,0.73
2022-09-27T20:56:44.240Z,0.55
2022-09-27T20:59:29.105Z,0.40
2022-09-27T21:01:55.858Z,0.70
2022-09-27T21:04:23.867Z,0.40
2022-09-27T21:06:51.605Z,0.82
2022-09-27T21:09:21.153Z,1.25
2022-09-27T21:11:49.662Z,0.40
2022-09-27T21:14:16.609Z,0.55
2022-09-27T21:16:43.341Z,0.40
2022-09-27T21:19:10.608Z,0.50
2022-09-27T21:21:37.617Z,0.40
2022-09-27T21:24:04.740Z,0.40
2022-09-27T21:26:33.042Z,0.40
2022-09-27T21:29:02.018Z,0.38
2022-09-27T21:31:31.914Z,0.30
2022-09-27T21:34:01.549Z,0.50
2022-09-27T21:36:31.356Z,0.40
2022-09-27T21:38:58.513Z,0.40
2022-09-27T21:41:25.847Z,0.47
2022-09-27T21:43:53.198Z,0.40
2022-09-27T21:46:25.764Z,0.57
2022-09-27T21:48:56.377Z,0.40
2022-09-27T21:51:26.203Z,0.60
2022-09-27T21:53:58.531Z,0.40
2022-09-27T21:56:26.977Z,0.45
2022-09-27T21:58:53.837Z,0.73
2022-09-27T22:01:23.211Z,0.68
2022-09-27T22:03:51.557Z,0.40
2022-09-27T22:06:23.725Z,0.50
2022-09-27T22:08:51.672Z,0.35
2022-09-27T22:11:26.881Z,0.40
2022-09-27T22:13:54.116Z,0.50
2022-09-27T22:16:22.146Z,0.32
2022-09-27T22:18:51.557Z,0.55
2022-09-27T22:21:24.770Z,0.40
2022-09-27T22:23:55.698Z,0.30
2022-09-27T22:26:24.994Z,0.38
2022-09-27T22:28:52.397Z,0.50
2022-09-27T22:31:20.682Z,0.65
2022-09-27T22:33:54.588Z,0.40
2022-09-27T22:36:22.450Z,0.50
2022-09-27T22:38:50.791Z,1.25
2022-09-27T22:41:17.714Z,0.40
2022-09-27T22:43:44.528Z,0.52
2022-09-27T22:46:11.205Z,0.60
2022-09-27T22:48:38.003Z,0.40
2022-09-27T22:51:05.120Z,0.50
2022-09-27T22:53:32.472Z,0.32
2022-09-27T22:56:04.279Z,0.43
2022-09-27T22:58:32.159Z,0.50
2022-09-27T23:00:59.395Z,0.60
2022-09-27T23:03:26.560Z,0.70
2022-09-27T23:05:53.280Z,0.40
2022-09-27T23:08:19.948Z,0.63
2022-09-27T23:10:46.551Z,0.60
2022-09-27T23:13:13.228Z,0.52
2022-09-27T23:15:40.245Z,1.35
2022-09-27T23:18:06.883Z,0.55
2022-09-27T23:20:34.608Z,0.40
2022-09-27T23:23:01.757Z,0.50
2022-09-27T23:25:28.429Z,0.43
2022-09-27T23:27:55.113Z,0.60
2022-09-27T23:30:22.668Z,0.50
2022-09-27T23:32:53.545Z,0.30
2022-09-27T23:35:20.208Z,0.47
2022-09-27T23:37:46.971Z,0.40
2022-09-27T23:40:13.721Z,0.40
2022-09-27T23:42:40.411Z,0.47
2022-09-27T23:45:07.620Z,0.50
2022-09-27T23:47:34.316Z,0.60
2022-09-27T23:50:00.950Z,0.45
2022-09-27T23:52:27.570Z,0.45
2022-09-27T23:54:54.223Z,0.50
2022-09-27T23:57:20.846Z,0.40
2022-09-27T23:59:47.510Z,0.40
